sensor_id;sensor_type;location;lat;lon;timestamp;P1;durP1;ratioP1;P2;durP2;ratioP2
43990;SDS011;29654;50.784;20.604;2023-12-20T00:03:01;6.03;;;4.80;;
43990;SDS011;29654;50.784;20.604;2023-12-20T00:08:04;5.30;;;4.68;;
43990;SDS011;29654;50.784;20.604;2023-12-20T00:13:08;5.45;;;4.63;;
43990;SDS011;29654;50.784;20.604;2023-12-20T00:18:11;5.63;;;4.40;;
43990;SDS011;29654;50.784;20.604;2023-12-20T00:23:13;6.63;;;4.93;;
43990;SDS011;29654;50.784;20.604;2023-12-20T00:28:18;6.68;;;5.50;;
43990;SDS011;29654;50.784;20.604;2023-12-20T00:33:20;5.90;;;5.30;;
43990;SDS011;29654;50.784;20.604;2023-12-20T00:38:23;8.45;;;5.55;;
43990;SDS011;29654;50.784;20.604;2023-12-20T00:43:27;7.25;;;5.78;;
43990;SDS011;29654;50.784;20.604;2023-12-20T00:48:30;6.00;;;5.15;;
43990;SDS011;29654;50.784;20.604;2023-12-20T00:53:32;8.15;;;5.97;;
43990;SDS011;29654;50.784;20.604;2023-12-20T00:58:36;6.95;;;5.50;;
43990;SDS011;29654;50.784;20.604;2023-12-20T01:03:39;7.18;;;5.57;;
43990;SDS011;29654;50.784;20.604;2023-12-20T01:08:42;7.47;;;5.57;;
43990;SDS011;29654;50.784;20.604;2023-12-20T01:13:46;6.60;;;4.82;;
43990;SDS011;29654;50.784;20.604;2023-12-20T01:18:48;7.63;;;5.57;;
43990;SDS011;29654;50.784;20.604;2023-12-20T01:23:51;8.10;;;5.25;;
43990;SDS011;29654;50.784;20.604;2023-12-20T01:28:55;5.95;;;5.18;;
43990;SDS011;29654;50.784;20.604;2023-12-20T01:33:57;7.38;;;5.55;;
43990;SDS011;29654;50.784;20.604;2023-12-20T01:39:01;6.80;;;5.32;;
43990;SDS011;29654;50.784;20.604;2023-12-20T01:44:05;6.57;;;5.03;;
43990;SDS011;29654;50.784;20.604;2023-12-20T01:49:07;7.32;;;5.47;;
43990;SDS011;29654;50.784;20.604;2023-12-20T01:54:10;7.07;;;5.18;;
43990;SDS011;29654;50.784;20.604;2023-12-20T01:59:14;6.32;;;5.65;;
43990;SDS011;29654;50.784;20.604;2023-12-20T02:04:18;7.20;;;5.72;;
43990;SDS011;29654;50.784;20.604;2023-12-20T02:09:21;6.32;;;5.68;;
43990;SDS011;29654;50.784;20.604;2023-12-20T02:14:26;6.78;;;5.38;;
43990;SDS011;29654;50.784;20.604;2023-12-20T02:19:28;8.50;;;5.68;;
43990;SDS011;29654;50.784;20.604;2023-12-20T02:24:33;6.63;;;5.88;;
43990;SDS011;29654;50.784;20.604;2023-12-20T02:29:36;8.18;;;6.22;;
43990;SDS011;29654;50.784;20.604;2023-12-20T02:34:38;8.70;;;6.38;;
43990;SDS011;29654;50.784;20.604;2023-12-20T02:39:42;8.60;;;6.75;;
43990;SDS011;29654;50.784;20.604;2023-12-20T02:44:45;9.25;;;6.60;;
43990;SDS011;29654;50.784;20.604;2023-12-20T02:49:47;7.50;;;5.97;;
43990;SDS011;29654;50.784;20.604;2023-12-20T02:54:51;7.85;;;6.65;;
43990;SDS011;29654;50.784;20.604;2023-12-20T02:59:54;7.15;;;6.32;;
43990;SDS011;29654;50.784;20.604;2023-12-20T03:04:57;8.15;;;6.13;;
43990;SDS011;29654;50.784;20.604;2023-12-20T03:10:02;9.23;;;6.25;;
43990;SDS011;29654;50.784;20.604;2023-12-20T03:15:06;7.40;;;6.47;;
43990;SDS011;29654;50.784;20.604;2023-12-20T03:20:10;7.57;;;6.35;;
43990;SDS011;29654;50.784;20.604;2023-12-20T03:25:14;6.97;;;6.30;;
43990;SDS011;29654;50.784;20.604;2023-12-20T03:30:16;7.53;;;5.95;;
43990;SDS011;29654;50.784;20.604;2023-12-20T03:35:19;7.93;;;6.40;;
43990;SDS011;29654;50.784;20.604;2023-12-20T03:40:23;7.85;;;5.72;;
43990;SDS011;29654;50.784;20.604;2023-12-20T03:45:25;8.65;;;6.53;;
43990;SDS011;29654;50.784;20.604;2023-12-20T03:50:28;7.47;;;6.20;;
43990;SDS011;29654;50.784;20.604;2023-12-20T03:55:32;6.00;;;5.40;;
43990;SDS011;29654;50.784;20.604;2023-12-20T04:00:35;7.22;;;6.03;;
43990;SDS011;29654;50.784;20.604;2023-12-20T04:05:37;7.85;;;6.40;;
43990;SDS011;29654;50.784;20.604;2023-12-20T04:10:41;6.75;;;6.00;;
43990;SDS011;29654;50.784;20.604;2023-12-20T04:15:44;7.03;;;5.70;;
43990;SDS011;29654;50.784;20.604;2023-12-20T04:20:46;7.45;;;6.25;;
43990;SDS011;29654;50.784;20.604;2023-12-20T04:25:51;6.88;;;6.00;;
43990;SDS011;29654;50.784;20.604;2023-12-20T04:30:53;6.00;;;4.85;;
43990;SDS011;29654;50.784;20.604;2023-12-20T04:35:56;6.22;;;5.13;;
43990;SDS011;29654;50.784;20.604;2023-12-20T04:41:00;5.80;;;5.20;;
43990;SDS011;29654;50.784;20.604;2023-12-20T04:46:03;6.97;;;4.68;;
43990;SDS011;29654;50.784;20.604;2023-12-20T04:51:05;5.30;;;4.50;;
43990;SDS011;29654;50.784;20.604;2023-12-20T04:56:09;6.10;;;4.88;;
43990;SDS011;29654;50.784;20.604;2023-12-20T05:01:12;7.10;;;5.20;;
43990;SDS011;29654;50.784;20.604;2023-12-20T05:06:15;5.75;;;4.50;;
43990;SDS011;29654;50.784;20.604;2023-12-20T05:11:19;5.55;;;4.53;;
43990;SDS011;29654;50.784;20.604;2023-12-20T05:16:21;6.35;;;5.22;;
43990;SDS011;29654;50.784;20.604;2023-12-20T05:21:24;5.80;;;5.20;;
43990;SDS011;29654;50.784;20.604;2023-12-20T05:26:31;5.93;;;5.32;;
43990;SDS011;29654;50.784;20.604;2023-12-20T05:31:34;6.22;;;5.63;;
43990;SDS011;29654;50.784;20.604;2023-12-20T05:36:36;6.07;;;5.47;;
43990;SDS011;29654;50.784;20.604;2023-12-20T05:41:41;6.82;;;5.43;;
43990;SDS011;29654;50.784;20.604;2023-12-20T05:46:43;6.75;;;6.00;;
43990;SDS011;29654;50.784;20.604;2023-12-20T05:51:46;7.57;;;5.82;;
43990;SDS011;29654;50.784;20.604;2023-12-20T05:56:50;5.97;;;5.38;;
43990;SDS011;29654;50.784;20.604;2023-12-20T06:01:52;8.45;;;5.63;;
43990;SDS011;29654;50.784;20.604;2023-12-20T06:06:55;6.95;;;5.97;;
43990;SDS011;29654;50.784;20.604;2023-12-20T06:11:59;6.57;;;5.30;;
43990;SDS011;29654;50.784;20.604;2023-12-20T06:17:01;6.07;;;5.47;;
43990;SDS011;29654;50.784;20.604;2023-12-20T06:22:04;6.88;;;5.68;;
43990;SDS011;29654;50.784;20.604;2023-12-20T06:27:08;6.47;;;5.88;;
43990;SDS011;29654;50.784;20.604;2023-12-20T06:32:11;6.50;;;5.80;;
43990;SDS011;29654;50.784;20.604;2023-12-20T06:37:14;6.63;;;5.93;;
43990;SDS011;29654;50.784;20.604;2023-12-20T06:42:18;7.13;;;6.00;;
43990;SDS011;29654;50.784;20.604;2023-12-20T06:47:20;7.38;;;5.85;;
43990;SDS011;29654;50.784;20.604;2023-12-20T06:52:23;7.47;;;6.68;;
43990;SDS011;29654;50.784;20.604;2023-12-20T06:57:27;6.82;;;6.18;;
43990;SDS011;29654;50.784;20.604;2023-12-20T07:02:29;7.00;;;6.35;;
43990;SDS011;29654;50.784;20.604;2023-12-20T07:07:32;7.68;;;6.80;;
43990;SDS011;29654;50.784;20.604;2023-12-20T07:12:36;7.85;;;6.60;;
43990;SDS011;29654;50.784;20.604;2023-12-20T07:17:39;8.40;;;6.80;;
43990;SDS011;29654;50.784;20.604;2023-12-20T07:22:41;8.27;;;7.50;;
43990;SDS011;29654;50.784;20.604;2023-12-20T07:27:45;9.27;;;7.82;;
43990;SDS011;29654;50.784;20.604;2023-12-20T07:32:48;9.70;;;7.65;;
43990;SDS011;29654;50.784;20.604;2023-12-20T07:37:50;10.57;;;8.07;;
43990;SDS011;29654;50.784;20.604;2023-12-20T07:42:54;10.65;;;8.63;;
43990;SDS011;29654;50.784;20.604;2023-12-20T07:47:58;10.02;;;8.38;;
43990;SDS011;29654;50.784;20.604;2023-12-20T07:53:01;10.63;;;8.50;;
43990;SDS011;29654;50.784;20.604;2023-12-20T07:58:05;9.45;;;8.20;;
43990;SDS011;29654;50.784;20.604;2023-12-20T08:03:08;8.95;;;8.05;;
43990;SDS011;29654;50.784;20.604;2023-12-20T08:08:11;8.70;;;7.75;;
43990;SDS011;29654;50.784;20.604;2023-12-20T08:13:15;8.48;;;7.13;;
43990;SDS011;29654;50.784;20.604;2023-12-20T08:18:17;7.18;;;6.18;;
43990;SDS011;29654;50.784;20.604;2023-12-20T08:23:20;6.60;;;5.93;;
43990;SDS011;29654;50.784;20.604;2023-12-20T08:28:24;5.82;;;5.22;;
43990;SDS011;29654;50.784;20.604;2023-12-20T08:33:27;6.95;;;6.05;;
43990;SDS011;29654;50.784;20.604;2023-12-20T08:38:30;6.88;;;6.00;;
43990;SDS011;29654;50.784;20.604;2023-12-20T08:43:35;6.80;;;5.32;;
43990;SDS011;29654;50.784;20.604;2023-12-20T08:48:39;4.38;;;3.95;;
43990;SDS011;29654;50.784;20.604;2023-12-20T08:53:42;3.40;;;3.10;;
43990;SDS011;29654;50.784;20.604;2023-12-20T08:58:47;3.33;;;3.03;;
43990;SDS011;29654;50.784;20.604;2023-12-20T09:03:49;4.80;;;4.10;;
43990;SDS011;29654;50.784;20.604;2023-12-20T09:08:52;5.07;;;4.55;;
43990;SDS011;29654;50.784;20.604;2023-12-20T09:13:56;5.90;;;4.88;;
43990;SDS011;29654;50.784;20.604;2023-12-20T09:18:58;5.57;;;4.25;;
43990;SDS011;29654;50.784;20.604;2023-12-20T09:24:01;4.07;;;3.78;;
43990;SDS011;29654;50.784;20.604;2023-12-20T09:29:05;4.10;;;3.70;;
43990;SDS011;29654;50.784;20.604;2023-12-20T09:34:09;3.97;;;3.58;;
43990;SDS011;29654;50.784;20.604;2023-12-20T09:39:12;5.18;;;3.38;;
43990;SDS011;29654;50.784;20.604;2023-12-20T09:44:16;3.95;;;3.55;;
43990;SDS011;29654;50.784;20.604;2023-12-20T09:49:19;3.65;;;3.35;;
43990;SDS011;29654;50.784;20.604;2023-12-20T09:54:23;3.63;;;3.13;;
43990;SDS011;29654;50.784;20.604;2023-12-20T09:59:28;3.95;;;3.22;;
43990;SDS011;29654;50.784;20.604;2023-12-20T10:04:31;3.50;;;3.17;;
43990;SDS011;29654;50.784;20.604;2023-12-20T10:09:34;3.65;;;3.35;;
43990;SDS011;29654;50.784;20.604;2023-12-20T10:14:39;4.53;;;3.25;;
43990;SDS011;29654;50.784;20.604;2023-12-20T10:19:42;2.47;;;2.20;;
43990;SDS011;29654;50.784;20.604;2023-12-20T10:24:45;2.22;;;2.00;;
43990;SDS011;29654;50.784;20.604;2023-12-20T10:29:49;1.13;;;1.02;;
43990;SDS011;29654;50.784;20.604;2023-12-20T10:34:52;1.88;;;1.40;;
43990;SDS011;29654;50.784;20.604;2023-12-20T10:39:56;2.00;;;1.58;;
43990;SDS011;29654;50.784;20.604;2023-12-20T10:45:04;3.13;;;1.42;;
43990;SDS011;29654;50.784;20.604;2023-12-20T10:50:07;2.15;;;1.95;;
43990;SDS011;29654;50.784;20.604;2023-12-20T10:55:12;3.05;;;2.47;;
43990;SDS011;29654;50.784;20.604;2023-12-20T11:00:16;3.20;;;2.80;;
43990;SDS011;29654;50.784;20.604;2023-12-20T11:05:24;2.63;;;1.65;;
43990;SDS011;29654;50.784;20.604;2023-12-20T11:10:35;1.88;;;1.70;;
43990;SDS011;29654;50.784;20.604;2023-12-20T11:15:46;2.17;;;1.85;;
43990;SDS011;29654;50.784;20.604;2023-12-20T11:20:48;1.67;;;1.58;;
43990;SDS011;29654;50.784;20.604;2023-12-20T11:25:51;1.88;;;1.17;;
43990;SDS011;29654;50.784;20.604;2023-12-20T11:31:02;1.92;;;1.30;;
43990;SDS011;29654;50.784;20.604;2023-12-20T11:36:12;2.63;;;1.50;;
43990;SDS011;29654;50.784;20.604;2023-12-20T11:41:16;1.20;;;0.95;;
43990;SDS011;29654;50.784;20.604;2023-12-20T11:46:20;1.13;;;1.00;;
43990;SDS011;29654;50.784;20.604;2023-12-20T11:51:23;1.73;;;1.55;;
43990;SDS011;29654;50.784;20.604;2023-12-20T11:56:25;1.42;;;1.27;;
43990;SDS011;29654;50.784;20.604;2023-12-20T12:01:29;1.00;;;0.90;;
43990;SDS011;29654;50.784;20.604;2023-12-20T12:06:33;0.95;;;0.93;;
43990;SDS011;29654;50.784;20.604;2023-12-20T12:11:36;1.58;;;1.23;;
43990;SDS011;29654;50.784;20.604;2023-12-20T12:16:40;1.35;;;1.17;;
43990;SDS011;29654;50.784;20.604;2023-12-20T12:21:43;1.52;;;1.35;;
43990;SDS011;29654;50.784;20.604;2023-12-20T12:26:49;2.53;;;1.98;;
43990;SDS011;29654;50.784;20.604;2023-12-20T12:31:54;1.35;;;1.20;;
43990;SDS011;29654;50.784;20.604;2023-12-20T12:36:57;1.70;;;1.45;;
43990;SDS011;29654;50.784;20.604;2023-12-20T12:41:59;0.90;;;0.90;;
43990;SDS011;29654;50.784;20.604;2023-12-20T12:47:04;1.20;;;1.10;;
43990;SDS011;29654;50.784;20.604;2023-12-20T12:52:06;1.15;;;0.90;;
43990;SDS011;29654;50.784;20.604;2023-12-20T12:57:09;1.35;;;1.00;;
43990;SDS011;29654;50.784;20.604;2023-12-20T13:02:13;1.20;;;1.02;;
43990;SDS011;29654;50.784;20.604;2023-12-20T13:07:16;1.20;;;1.08;;
43990;SDS011;29654;50.784;20.604;2023-12-20T13:12:19;1.50;;;1.35;;
43990;SDS011;29654;50.784;20.604;2023-12-20T13:17:23;1.42;;;1.33;;
43990;SDS011;29654;50.784;20.604;2023-12-20T13:22:27;1.42;;;1.20;;
43990;SDS011;29654;50.784;20.604;2023-12-20T13:27:30;1.27;;;1.08;;
43990;SDS011;29654;50.784;20.604;2023-12-20T13:32:34;1.40;;;1.23;;
43990;SDS011;29654;50.784;20.604;2023-12-20T13:37:37;1.77;;;1.40;;
43990;SDS011;29654;50.784;20.604;2023-12-20T13:42:41;1.17;;;1.08;;
43990;SDS011;29654;50.784;20.604;2023-12-20T13:47:45;1.58;;;1.48;;
43990;SDS011;29654;50.784;20.604;2023-12-20T13:52:47;2.00;;;1.60;;
43990;SDS011;29654;50.784;20.604;2023-12-20T13:57:50;1.92;;;1.73;;
43990;SDS011;29654;50.784;20.604;2023-12-20T14:02:54;3.72;;;2.13;;
43990;SDS011;29654;50.784;20.604;2023-12-20T14:07:57;3.95;;;2.38;;
43990;SDS011;29654;50.784;20.604;2023-12-20T14:13:00;4.15;;;2.90;;
43990;SDS011;29654;50.784;20.604;2023-12-20T14:18:04;3.00;;;2.47;;
43990;SDS011;29654;50.784;20.604;2023-12-20T14:23:09;2.47;;;2.08;;
43990;SDS011;29654;50.784;20.604;2023-12-20T14:28:11;3.10;;;2.60;;
43990;SDS011;29654;50.784;20.604;2023-12-20T14:33:16;3.50;;;2.92;;
43990;SDS011;29654;50.784;20.604;2023-12-20T14:38:21;4.40;;;2.97;;
43990;SDS011;29654;50.784;20.604;2023-12-20T14:43:23;2.65;;;2.30;;
43990;SDS011;29654;50.784;20.604;2023-12-20T14:48:29;2.40;;;2.20;;
43990;SDS011;29654;50.784;20.604;2023-12-20T14:53:32;3.65;;;2.67;;
43990;SDS011;29654;50.784;20.604;2023-12-20T14:58:37;3.10;;;2.50;;
43990;SDS011;29654;50.784;20.604;2023-12-20T15:03:41;2.85;;;2.40;;
43990;SDS011;29654;50.784;20.604;2023-12-20T15:08:44;3.90;;;2.60;;
43990;SDS011;29654;50.784;20.604;2023-12-20T15:13:46;3.58;;;2.75;;
43990;SDS011;29654;50.784;20.604;2023-12-20T15:18:56;4.32;;;2.70;;
43990;SDS011;29654;50.784;20.604;2023-12-20T15:23:59;3.42;;;2.85;;
43990;SDS011;29654;50.784;20.604;2023-12-20T15:29:13;3.47;;;2.63;;
43990;SDS011;29654;50.784;20.604;2023-12-20T15:34:17;3.40;;;3.00;;
43990;SDS011;29654;50.784;20.604;2023-12-20T15:39:20;4.55;;;3.38;;
43990;SDS011;29654;50.784;20.604;2023-12-20T15:44:23;4.75;;;3.42;;
43990;SDS011;29654;50.784;20.604;2023-12-20T15:49:29;4.85;;;3.47;;
43990;SDS011;29654;50.784;20.604;2023-12-20T15:54:32;4.72;;;2.85;;
43990;SDS011;29654;50.784;20.604;2023-12-20T15:59:38;3.08;;;2.38;;
43990;SDS011;29654;50.784;20.604;2023-12-20T16:04:42;4.43;;;2.50;;
43990;SDS011;29654;50.784;20.604;2023-12-20T16:09:46;3.78;;;2.17;;
43990;SDS011;29654;50.784;20.604;2023-12-20T16:14:49;3.47;;;2.60;;
43990;SDS011;29654;50.784;20.604;2023-12-20T16:19:53;4.72;;;2.55;;
43990;SDS011;29654;50.784;20.604;2023-12-20T16:24:56;4.43;;;3.10;;
43990;SDS011;29654;50.784;20.604;2023-12-20T16:29:59;4.93;;;3.63;;
43990;SDS011;29654;50.784;20.604;2023-12-20T16:35:03;4.07;;;3.47;;
43990;SDS011;29654;50.784;20.604;2023-12-20T16:40:07;7.30;;;4.43;;
43990;SDS011;29654;50.784;20.604;2023-12-20T16:45:10;5.40;;;4.38;;
43990;SDS011;29654;50.784;20.604;2023-12-20T16:50:14;6.45;;;4.30;;
43990;SDS011;29654;50.784;20.604;2023-12-20T16:55:17;6.55;;;4.38;;
43990;SDS011;29654;50.784;20.604;2023-12-20T17:00:20;4.75;;;3.97;;
43990;SDS011;29654;50.784;20.604;2023-12-20T17:05:25;7.05;;;4.10;;
43990;SDS011;29654;50.784;20.604;2023-12-20T17:10:27;6.97;;;4.40;;
43990;SDS011;29654;50.784;20.604;2023-12-20T17:15:30;6.55;;;5.07;;
43990;SDS011;29654;50.784;20.604;2023-12-20T17:20:34;5.68;;;3.97;;
43990;SDS011;29654;50.784;20.604;2023-12-20T17:25:37;7.38;;;4.90;;
43990;SDS011;29654;50.784;20.604;2023-12-20T17:30:41;5.93;;;5.25;;
43990;SDS011;29654;50.784;20.604;2023-12-20T17:35:45;9.68;;;6.32;;
43990;SDS011;29654;50.784;20.604;2023-12-20T17:40:48;7.45;;;6.53;;
43990;SDS011;29654;50.784;20.604;2023-12-20T17:45:51;10.43;;;7.47;;
43990;SDS011;29654;50.784;20.604;2023-12-20T17:50:55;11.35;;;8.95;;
43990;SDS011;29654;50.784;20.604;2023-12-20T17:55:58;12.20;;;10.10;;
43990;SDS011;29654;50.784;20.604;2023-12-20T18:01:01;12.90;;;11.52;;
43990;SDS011;29654;50.784;20.604;2023-12-20T18:06:05;13.77;;;11.88;;
43990;SDS011;29654;50.784;20.604;2023-12-20T18:11:08;14.18;;;12.65;;
43990;SDS011;29654;50.784;20.604;2023-12-20T18:16:11;15.00;;;13.48;;
43990;SDS011;29654;50.784;20.604;2023-12-20T18:21:15;16.13;;;13.43;;
43990;SDS011;29654;50.784;20.604;2023-12-20T18:26:17;18.20;;;13.65;;
43990;SDS011;29654;50.784;20.604;2023-12-20T18:31:20;16.23;;;14.10;;
43990;SDS011;29654;50.784;20.604;2023-12-20T18:36:24;15.55;;;12.90;;
43990;SDS011;29654;50.784;20.604;2023-12-20T18:41:26;14.82;;;12.00;;
43990;SDS011;29654;50.784;20.604;2023-12-20T18:46:29;13.68;;;11.02;;
43990;SDS011;29654;50.784;20.604;2023-12-20T18:51:33;16.65;;;12.77;;
43990;SDS011;29654;50.784;20.604;2023-12-20T18:56:35;14.68;;;12.93;;
43990;SDS011;29654;50.784;20.604;2023-12-20T19:01:38;15.60;;;13.15;;
43990;SDS011;29654;50.784;20.604;2023-12-20T19:06:42;16.25;;;12.80;;
43990;SDS011;29654;50.784;20.604;2023-12-20T19:11:45;15.57;;;13.02;;
43990;SDS011;29654;50.784;20.604;2023-12-20T19:16:47;16.92;;;13.20;;
43990;SDS011;29654;50.784;20.604;2023-12-20T19:21:52;14.90;;;12.07;;
43990;SDS011;29654;50.784;20.604;2023-12-20T19:26:54;18.20;;;12.52;;
43990;SDS011;29654;50.784;20.604;2023-12-20T19:32:01;14.05;;;11.63;;
43990;SDS011;29654;50.784;20.604;2023-12-20T19:37:05;13.15;;;11.30;;
43990;SDS011;29654;50.784;20.604;2023-12-20T19:42:07;13.23;;;10.95;;
43990;SDS011;29654;50.784;20.604;2023-12-20T19:47:10;12.60;;;10.50;;
43990;SDS011;29654;50.784;20.604;2023-12-20T19:52:15;12.07;;;9.98;;
43990;SDS011;29654;50.784;20.604;2023-12-20T19:57:18;10.95;;;9.07;;
43990;SDS011;29654;50.784;20.604;2023-12-20T20:02:22;10.40;;;8.25;;
43990;SDS011;29654;50.784;20.604;2023-12-20T20:07:26;11.05;;;8.50;;
43990;SDS011;29654;50.784;20.604;2023-12-20T20:12:29;10.25;;;8.90;;
43990;SDS011;29654;50.784;20.604;2023-12-20T20:17:33;10.80;;;8.48;;
43990;SDS011;29654;50.784;20.604;2023-12-20T20:22:37;9.68;;;8.18;;
43990;SDS011;29654;50.784;20.604;2023-12-20T20:27:41;11.30;;;8.20;;
43990;SDS011;29654;50.784;20.604;2023-12-20T20:32:43;9.50;;;7.72;;
43990;SDS011;29654;50.784;20.604;2023-12-20T20:37:48;12.23;;;8.60;;
43990;SDS011;29654;50.784;20.604;2023-12-20T20:42:50;10.45;;;7.85;;
43990;SDS011;29654;50.784;20.604;2023-12-20T20:47:53;10.23;;;7.90;;
43990;SDS011;29654;50.784;20.604;2023-12-20T20:52:57;8.38;;;7.35;;
43990;SDS011;29654;50.784;20.604;2023-12-20T20:58:00;8.05;;;6.85;;
43990;SDS011;29654;50.784;20.604;2023-12-20T21:03:02;11.68;;;7.22;;
43990;SDS011;29654;50.784;20.604;2023-12-20T21:08:07;9.15;;;7.07;;
43990;SDS011;29654;50.784;20.604;2023-12-20T21:13:10;9.43;;;6.72;;
43990;SDS011;29654;50.784;20.604;2023-12-20T21:18:13;7.70;;;6.25;;
43990;SDS011;29654;50.784;20.604;2023-12-20T21:23:17;8.20;;;6.53;;
43990;SDS011;29654;50.784;20.604;2023-12-20T21:28:21;7.75;;;5.68;;
43990;SDS011;29654;50.784;20.604;2023-12-20T21:33:25;9.02;;;6.53;;
43990;SDS011;29654;50.784;20.604;2023-12-20T21:38:31;7.63;;;6.05;;
43990;SDS011;29654;50.784;20.604;2023-12-20T21:43:34;8.80;;;6.72;;
43990;SDS011;29654;50.784;20.604;2023-12-20T21:48:37;10.27;;;7.07;;
43990;SDS011;29654;50.784;20.604;2023-12-20T21:53:42;9.32;;;5.53;;
43990;SDS011;29654;50.784;20.604;2023-12-20T21:58:44;3.67;;;2.85;;
43990;SDS011;29654;50.784;20.604;2023-12-20T22:03:47;4.03;;;2.63;;
43990;SDS011;29654;50.784;20.604;2023-12-20T22:08:52;3.22;;;2.42;;
43990;SDS011;29654;50.784;20.604;2023-12-20T22:13:55;3.03;;;2.55;;
43990;SDS011;29654;50.784;20.604;2023-12-20T22:19:00;3.95;;;2.65;;
43990;SDS011;29654;50.784;20.604;2023-12-20T22:24:04;2.72;;;2.25;;
43990;SDS011;29654;50.784;20.604;2023-12-20T22:29:07;3.25;;;2.53;;
43990;SDS011;29654;50.784;20.604;2023-12-20T22:34:10;3.45;;;2.53;;
43990;SDS011;29654;50.784;20.604;2023-12-20T22:39:14;4.00;;;2.80;;
43990;SDS011;29654;50.784;20.604;2023-12-20T22:44:17;4.45;;;2.80;;
43990;SDS011;29654;50.784;20.604;2023-12-20T22:49:19;3.75;;;2.72;;
43990;SDS011;29654;50.784;20.604;2023-12-20T22:54:23;3.17;;;2.63;;
43990;SDS011;29654;50.784;20.604;2023-12-20T22:59:26;4.55;;;2.67;;
43990;SDS011;29654;50.784;20.604;2023-12-20T23:04:29;3.72;;;2.53;;
43990;SDS011;29654;50.784;20.604;2023-12-20T23:09:32;3.88;;;2.72;;
43990;SDS011;29654;50.784;20.604;2023-12-20T23:14:35;4.35;;;2.80;;
43990;SDS011;29654;50.784;20.604;2023-12-20T23:19:38;3.50;;;2.38;;
43990;SDS011;29654;50.784;20.604;2023-12-20T23:24:42;3.85;;;2.72;;
43990;SDS011;29654;50.784;20.604;2023-12-20T23:29:46;4.15;;;2.70;;
43990;SDS011;29654;50.784;20.604;2023-12-20T23:34:49;5.18;;;2.97;;
43990;SDS011;29654;50.784;20.604;2023-12-20T23:39:53;3.83;;;3.17;;
43990;SDS011;29654;50.784;20.604;2023-12-20T23:44:55;4.75;;;3.47;;
43990;SDS011;29654;50.784;20.604;2023-12-20T23:49:58;4.93;;;3.67;;
43990;SDS011;29654;50.784;20.604;2023-12-20T23:55:02;3.97;;;3.45;;
